Airport ICAO


14:34 UTC

11°C

Broken clouds


An affordable passengers' Moving Map for your aircraft. Made for the iPad and the iPhone
More information here

LFPM Villaroche


Melun FRANCE   VFR


METAR LFPM 241400Z AUTO 27002KT 9999 SCT016 BKN210 11/08 Q1012 0h34min





NOTAMS

OPEN